createdAt,value
2022-08-05T00:01:36.145Z,68.55
2022-08-05T00:04:14.810Z,68.99
2022-08-05T00:06:41.337Z,68.92
2022-08-05T00:09:13.116Z,69.03
2022-08-05T00:11:49.159Z,68.49
2022-08-05T00:14:17.106Z,68.92
2022-08-05T00:16:52.548Z,69.30
2022-08-05T00:19:22.146Z,68.39
2022-08-05T00:21:49.419Z,68.61
2022-08-05T00:24:16.150Z,67.96
2022-08-05T00:26:50.769Z,68.61
2022-08-05T00:29:18.661Z,68.63
2022-08-05T00:32:10.247Z,68.55
2022-08-05T00:34:53.874Z,68.22
2022-08-05T00:37:22.327Z,68.14
2022-08-05T00:39:58.489Z,68.83
2022-08-05T00:42:34.123Z,68.22
2022-08-05T00:45:01.657Z,68.16
2022-08-05T00:47:49.197Z,68.49
2022-08-05T00:50:15.293Z,68.68
2022-08-05T00:52:41.739Z,68.59
2022-08-05T00:55:12.295Z,68.28
2022-08-05T00:57:57.933Z,68.66
2022-08-05T01:00:26.196Z,68.56
2022-08-05T01:02:52.765Z,68.87
2022-08-05T01:05:19.533Z,69.47
2022-08-05T01:08:30.647Z,68.98
2022-08-05T01:10:54.919Z,68.63
2022-08-05T01:13:58.288Z,69.05
2022-08-05T01:16:58.287Z,69.44
2022-08-05T01:20:01.823Z,69.24
2022-08-05T01:22:27.929Z,69.69
2022-08-05T01:25:19.364Z,69.59
2022-08-05T01:28:10.650Z,69.97
2022-08-05T01:30:50.689Z,69.55
2022-08-05T01:33:25.393Z,69.43
2022-08-05T01:35:55.473Z,70.17
2022-08-05T01:38:29.308Z,69.93
2022-08-05T01:41:02.402Z,70.21
2022-08-05T01:43:30.578Z,69.67
2022-08-05T01:45:58.794Z,69.77
2022-08-05T01:48:36.412Z,69.81
2022-08-05T01:51:12.495Z,69.85
2022-08-05T01:53:57.016Z,69.79
2022-08-05T01:58:12.772Z,69.95
2022-08-05T01:59:20.022Z,69.82
2022-08-05T02:01:50.107Z,70.27
2022-08-05T02:04:20.415Z,70.35
2022-08-05T02:06:47.827Z,70.42
2022-08-05T02:09:15.562Z,70.33
2022-08-05T02:11:52.369Z,70.28
2022-08-05T02:14:32.000Z,70.46
2022-08-05T02:17:07.365Z,70.65
2022-08-05T02:19:47.002Z,70.87
2022-08-05T02:22:26.367Z,70.84
2022-08-05T02:25:00.141Z,70.75
2022-08-05T02:27:30.193Z,70.72
2022-08-05T02:30:17.378Z,71.00
2022-08-05T02:32:48.170Z,70.77
2022-08-05T02:35:27.761Z,71.29
2022-08-05T02:37:56.749Z,71.49
2022-08-05T02:40:27.543Z,71.81
2022-08-05T02:42:55.636Z,71.60
2022-08-05T02:45:25.316Z,71.67
2022-08-05T02:48:07.545Z,72.19
2022-08-05T02:50:44.140Z,72.20
2022-08-05T02:53:18.797Z,72.11
2022-08-05T02:55:54.814Z,72.21
2022-08-05T02:58:29.994Z,71.96
2022-08-05T03:00:58.936Z,72.29
2022-08-05T03:03:28.074Z,72.06
2022-08-05T03:06:56.816Z,72.08
2022-08-05T03:08:52.107Z,72.10
2022-08-05T03:11:54.625Z,72.57
2022-08-05T03:14:08.470Z,72.38
2022-08-05T03:16:35.980Z,72.48
2022-08-05T03:19:12.499Z,72.60
2022-08-05T03:21:48.929Z,72.25
2022-08-05T03:24:18.437Z,72.80
2022-08-05T03:26:56.517Z,72.65
2022-08-05T03:29:24.183Z,72.83
2022-08-05T03:32:11.054Z,72.86
2022-08-05T03:34:38.470Z,72.76
2022-08-05T03:37:06.637Z,72.61
2022-08-05T03:39:38.107Z,73.09
2022-08-05T03:42:13.803Z,72.78
2022-08-05T03:44:42.502Z,73.15
2022-08-05T03:47:09.047Z,73.15
2022-08-05T03:49:51.858Z,73.15
2022-08-05T03:52:37.445Z,72.85
2022-08-05T03:56:04.724Z,73.26
2022-08-05T03:58:10.686Z,72.80
2022-08-05T04:00:39.782Z,73.08
2022-08-05T04:03:14.887Z,73.04
2022-08-05T04:05:54.154Z,73.11
2022-08-05T04:08:34.617Z,73.30
2022-08-05T04:11:04.616Z,73.10
2022-08-05T04:13:50.051Z,73.48
2022-08-05T04:16:25.223Z,73.52
2022-08-05T04:18:58.005Z,73.79
2022-08-05T04:22:09.545Z,73.69
2022-08-05T04:24:19.502Z,73.88
2022-08-05T04:26:50.067Z,73.38
2022-08-05T04:29:17.030Z,73.29
2022-08-05T04:31:43.555Z,73.43
2022-08-05T04:34:31.139Z,73.29
2022-08-05T04:36:56.817Z,73.62
2022-08-05T04:39:23.428Z,73.60
2022-08-05T04:41:50.983Z,73.85
2022-08-05T04:44:21.134Z,73.87
2022-08-05T04:46:56.030Z,74.02
2022-08-05T04:49:24.461Z,74.73
2022-08-05T04:51:51.383Z,74.32
2022-08-05T04:54:27.269Z,74.68
2022-08-05T04:56:58.929Z,74.09
2022-08-05T04:59:38.281Z,73.80
2022-08-05T05:02:36.167Z,73.64
2022-08-05T05:04:52.534Z,73.11
2022-08-05T05:07:29.790Z,73.16
2022-08-05T05:09:59.014Z,73.15
2022-08-05T05:12:29.112Z,73.00
2022-08-05T05:14:55.606Z,72.99
2022-08-05T05:17:24.611Z,72.69
2022-08-05T05:20:09.350Z,73.24
2022-08-05T05:22:40.977Z,73.25
2022-08-05T05:25:17.101Z,73.21
2022-08-05T05:27:48.776Z,73.31
2022-08-05T05:30:31.357Z,72.75
2022-08-05T05:33:03.726Z,72.33
2022-08-05T05:35:43.639Z,72.22
2022-08-05T05:38:13.281Z,72.18
2022-08-05T05:40:45.057Z,72.36
2022-08-05T05:43:16.638Z,72.06
2022-08-05T05:45:54.737Z,71.42
2022-08-05T05:48:27.664Z,71.97
2022-08-05T05:50:54.416Z,71.93
2022-08-05T05:53:22.758Z,71.60
2022-08-05T05:55:52.178Z,71.35
2022-08-05T05:58:30.374Z,72.12
2022-08-05T06:01:12.357Z,71.48
2022-08-05T06:04:00.630Z,71.16
2022-08-05T06:06:27.923Z,70.48
2022-08-05T06:08:58.028Z,69.94
2022-08-05T06:11:24.477Z,70.04
2022-08-05T06:13:54.057Z,69.57
2022-08-05T06:16:29.591Z,69.42
2022-08-05T06:18:59.927Z,69.90
2022-08-05T06:21:37.210Z,69.08
2022-08-05T06:24:07.749Z,69.15
2022-08-05T06:26:51.270Z,68.78
2022-08-05T06:29:25.126Z,68.69
2022-08-05T06:32:24.873Z,68.16
2022-08-05T06:34:59.176Z,67.85
2022-08-05T06:37:57.394Z,67.68
2022-08-05T06:40:14.107Z,67.34
2022-08-05T06:42:51.531Z,67.07
2022-08-05T06:45:21.252Z,67.06
2022-08-05T06:48:36.148Z,66.37
2022-08-05T06:50:51.484Z,66.66
2022-08-05T06:53:27.592Z,66.32
2022-08-05T06:55:55.812Z,66.09
2022-08-05T06:58:35.013Z,66.07
2022-08-05T07:01:05.768Z,65.38
2022-08-05T07:03:33.611Z,65.09
2022-08-05T07:06:06.256Z,65.24
2022-08-05T07:08:41.891Z,65.14
2022-08-05T07:11:15.269Z,64.26
2022-08-05T07:14:01.499Z,64.77
2022-08-05T07:17:56.227Z,64.51
2022-08-05T07:22:28.346Z,63.46
2022-08-05T07:25:22.023Z,62.45
2022-08-05T07:27:57.514Z,60.83
2022-08-05T07:30:32.512Z,59.77
2022-08-05T07:33:00.835Z,58.40
2022-08-05T07:36:05.227Z,59.53
2022-08-05T07:38:32.825Z,58.63
2022-08-05T07:42:06.943Z,58.43
2022-08-05T07:43:57.538Z,59.01
2022-08-05T07:46:26.183Z,57.69
2022-08-05T07:49:02.363Z,56.78
2022-08-05T07:51:48.940Z,56.11
2022-08-05T07:54:26.517Z,55.61
2022-08-05T07:57:13.788Z,56.30
2022-08-05T07:59:43.364Z,51.70
2022-08-05T08:02:15.647Z,54.20
2022-08-05T08:04:48.401Z,53.02
2022-08-05T08:07:17.846Z,53.84
2022-08-05T08:09:45.739Z,53.01
2022-08-05T08:12:37.142Z,52.92
2022-08-05T08:15:03.575Z,53.00
2022-08-05T08:17:32.232Z,53.19
2022-08-05T08:20:23.413Z,53.98
2022-08-05T08:22:52.101Z,54.60
2022-08-05T08:25:27.140Z,53.76
2022-08-05T08:28:05.704Z,54.05
2022-08-05T08:30:47.947Z,52.93
2022-08-05T08:33:16.604Z,53.14
2022-08-05T08:35:52.740Z,52.91
2022-08-05T08:38:35.470Z,49.84
2022-08-05T08:41:09.993Z,51.46
2022-08-05T08:45:20.237Z,51.17
2022-08-05T08:46:26.343Z,50.00
2022-08-05T08:49:06.134Z,49.46
2022-08-05T08:52:03.507Z,49.86
2022-08-05T08:54:30.582Z,50.95
2022-08-05T08:56:59.712Z,49.58
2022-08-05T08:59:27.890Z,48.74
2022-08-05T09:02:06.222Z,49.96
2022-08-05T09:04:58.178Z,49.27
2022-08-05T09:07:28.870Z,49.00
2022-08-05T09:09:55.900Z,49.17
2022-08-05T09:12:27.690Z,50.47
2022-08-05T09:14:58.678Z,49.20
2022-08-05T09:17:40.873Z,49.99
2022-08-05T09:20:08.712Z,50.48
2022-08-05T09:23:19.803Z,49.65
2022-08-05T09:26:01.167Z,46.19
2022-08-05T09:28:33.492Z,43.86
2022-08-05T09:31:23.461Z,45.33
2022-08-05T09:33:59.475Z,44.63
2022-08-05T09:36:54.154Z,44.82
2022-08-05T09:39:27.581Z,45.02
2022-08-05T09:42:07.821Z,44.83
2022-08-05T09:44:37.938Z,45.52
2022-08-05T09:47:10.360Z,45.75
2022-08-05T09:50:01.752Z,44.99
2022-08-05T09:52:34.037Z,44.67
2022-08-05T09:55:58.525Z,43.92
2022-08-05T09:57:59.922Z,39.86
2022-08-05T10:00:27.854Z,40.67
2022-08-05T10:02:58.333Z,42.11
2022-08-05T10:05:28.000Z,41.31
2022-08-05T10:08:36.010Z,42.16
2022-08-05T10:10:53.984Z,42.57
2022-08-05T10:13:27.550Z,43.43
2022-08-05T10:16:32.263Z,43.22
2022-08-05T10:19:01.631Z,43.89
2022-08-05T10:21:35.228Z,43.01
2022-08-05T10:24:10.903Z,42.12
2022-08-05T10:26:37.905Z,41.07
2022-08-05T10:29:23.733Z,36.96
2022-08-05T10:32:54.813Z,38.02
2022-08-05T10:34:55.291Z,37.20
2022-08-05T10:37:21.868Z,36.47
2022-08-05T10:40:03.354Z,36.42
2022-08-05T10:42:36.581Z,37.22
2022-08-05T10:45:21.025Z,34.95
2022-08-05T10:48:29.865Z,34.85
2022-08-05T10:51:29.057Z,36.62
2022-08-05T10:54:00.846Z,35.71
2022-08-05T10:56:30.671Z,35.28
2022-08-05T10:59:07.024Z,35.36
2022-08-05T11:01:55.495Z,36.69
2022-08-05T11:04:30.952Z,36.06
2022-08-05T11:06:58.303Z,36.50
2022-08-05T11:09:39.123Z,36.53
2022-08-05T11:12:24.753Z,37.87
2022-08-05T11:15:20.547Z,38.25
2022-08-05T11:18:07.294Z,37.88
2022-08-05T11:20:45.211Z,38.00
2022-08-05T11:23:33.004Z,38.08
2022-08-05T11:26:28.671Z,38.20
2022-08-05T11:29:13.435Z,38.05
2022-08-05T11:31:54.193Z,37.30
2022-08-05T11:34:51.349Z,38.69
2022-08-05T11:38:26.797Z,39.19
2022-08-05T11:41:54.674Z,38.20
2022-08-05T11:44:40.608Z,38.45
2022-08-05T11:47:10.474Z,37.11
2022-08-05T11:49:43.030Z,37.72
2022-08-05T11:52:11.872Z,38.78
2022-08-05T11:54:40.382Z,41.65
2022-08-05T11:57:24.497Z,43.14
2022-08-05T11:59:52.818Z,41.92
2022-08-05T12:02:31.409Z,40.73
2022-08-05T12:05:07.513Z,41.03
2022-08-05T12:08:08.483Z,40.34
2022-08-05T12:10:43.613Z,39.27
2022-08-05T12:13:27.970Z,38.99
2022-08-05T12:16:14.508Z,39.75
2022-08-05T12:18:52.338Z,41.21
2022-08-05T12:21:39.246Z,42.32
2022-08-05T12:24:07.347Z,43.11
2022-08-05T12:26:35.507Z,44.03
2022-08-05T12:29:09.433Z,45.18
2022-08-05T12:31:43.473Z,46.10
2022-08-05T12:34:21.178Z,46.74
2022-08-05T12:36:49.642Z,46.71
2022-08-05T12:39:17.170Z,46.89
2022-08-05T12:41:44.150Z,47.30
2022-08-05T12:44:14.530Z,48.11
2022-08-05T12:46:59.007Z,47.79
2022-08-05T12:49:25.455Z,47.80
2022-08-05T12:52:14.525Z,46.68
2022-08-05T12:54:51.271Z,46.45
2022-08-05T12:57:19.588Z,47.14
2022-08-05T13:01:57.259Z,48.02
2022-08-05T13:02:42.470Z,48.00
2022-08-05T13:05:14.657Z,47.04
2022-08-05T13:08:00.399Z,47.47
2022-08-05T13:10:28.774Z,47.44
2022-08-05T13:12:57.971Z,46.71
2022-08-05T13:15:41.632Z,46.25
2022-08-05T13:18:19.875Z,45.77
2022-08-05T13:20:49.284Z,45.70
2022-08-05T13:23:22.310Z,45.42
2022-08-05T13:25:52.032Z,45.00
2022-08-05T13:28:26.780Z,45.50
2022-08-05T13:30:53.692Z,44.00
2022-08-05T13:34:21.305Z,44.78
2022-08-05T13:36:09.299Z,44.14
2022-08-05T13:38:38.418Z,44.11
2022-08-05T13:41:10.052Z,44.41
2022-08-05T13:43:45.859Z,44.46
2022-08-05T13:46:44.069Z,44.54
2022-08-05T13:49:10.443Z,44.10
2022-08-05T13:51:40.900Z,44.29
2022-08-05T13:54:11.685Z,42.21
2022-08-05T13:56:39.645Z,42.58
2022-08-05T13:59:20.212Z,43.25
2022-08-05T14:01:57.804Z,43.02
2022-08-05T14:04:50.171Z,43.05
2022-08-05T14:07:55.781Z,42.97
2022-08-05T14:10:08.491Z,42.58
2022-08-05T14:12:37.623Z,41.80
2022-08-05T14:16:04.769Z,40.99
2022-08-05T14:17:55.105Z,41.43
2022-08-05T14:20:27.684Z,39.67
2022-08-05T14:22:54.415Z,40.24
2022-08-05T14:25:22.541Z,41.18
2022-08-05T14:27:54.497Z,41.39
2022-08-05T14:30:21.553Z,41.38
2022-08-05T14:32:48.814Z,41.36
2022-08-05T14:35:16.052Z,42.24
2022-08-05T14:37:49.033Z,42.80
2022-08-05T14:40:17.419Z,42.73
2022-08-05T14:42:44.131Z,42.27
2022-08-05T14:45:10.794Z,43.64
2022-08-05T14:48:04.270Z,44.55
2022-08-05T14:50:25.339Z,45.35
2022-08-05T14:52:56.764Z,45.45
2022-08-05T14:55:39.142Z,44.93
2022-08-05T14:58:11.575Z,45.41
2022-08-05T15:00:58.250Z,45.95
2022-08-05T15:03:29.589Z,46.63
2022-08-05T15:06:07.550Z,45.21
2022-08-05T15:09:01.279Z,44.38
2022-08-05T15:11:51.650Z,43.03
2022-08-05T15:14:34.320Z,45.25
2022-08-05T15:16:59.474Z,46.26
2022-08-05T15:19:26.066Z,46.11
2022-08-05T15:21:52.590Z,47.12
2022-08-05T15:24:18.951Z,47.37
2022-08-05T15:26:46.627Z,46.84
2022-08-05T15:29:15.307Z,45.77
2022-08-05T15:31:41.744Z,46.39
2022-08-05T15:34:31.593Z,46.08
2022-08-05T15:36:54.634Z,45.39
2022-08-05T15:40:59.158Z,46.27
2022-08-05T15:42:54.336Z,45.49
2022-08-05T15:44:56.643Z,45.79
2022-08-05T15:47:23.678Z,45.72
2022-08-05T15:49:59.178Z,45.95
2022-08-05T15:52:51.660Z,45.51
2022-08-05T15:55:16.084Z,45.94
2022-08-05T15:57:43.459Z,45.56
2022-08-05T16:00:12.481Z,46.42
2022-08-05T16:02:43.219Z,46.60
2022-08-05T16:05:11.167Z,47.21
2022-08-05T16:07:38.137Z,46.51
2022-08-05T16:10:12.816Z,46.20
2022-08-05T16:12:39.195Z,47.00
2022-08-05T16:15:06.127Z,46.02
2022-08-05T16:17:36.086Z,46.15
2022-08-05T16:20:04.502Z,46.54
2022-08-05T16:22:38.428Z,46.67
2022-08-05T16:25:09.871Z,47.35
2022-08-05T16:27:46.939Z,47.48
2022-08-05T16:30:26.636Z,46.50
2022-08-05T16:32:55.460Z,46.92
2022-08-05T16:35:27.806Z,47.60
2022-08-05T16:38:03.360Z,46.88
2022-08-05T16:40:42.128Z,45.98
2022-08-05T16:43:16.390Z,46.81
2022-08-05T16:46:06.099Z,45.18
2022-08-05T16:48:35.144Z,44.66
2022-08-05T16:51:02.172Z,44.14
2022-08-05T16:54:02.046Z,44.03
2022-08-05T16:56:17.243Z,43.62
2022-08-05T16:58:43.761Z,43.54
2022-08-05T17:01:11.209Z,44.38
2022-08-05T17:03:38.941Z,44.99
2022-08-05T17:06:05.782Z,45.46
2022-08-05T17:08:52.101Z,45.78
2022-08-05T17:11:23.774Z,45.50
2022-08-05T17:14:00.441Z,45.70
2022-08-05T17:16:36.383Z,46.15
2022-08-05T17:19:09.314Z,46.14
2022-08-05T17:21:37.685Z,46.58
2022-08-05T17:24:30.180Z,47.65
2022-08-05T17:26:56.784Z,47.52
2022-08-05T17:29:33.791Z,48.00
2022-08-05T17:32:08.635Z,48.14
2022-08-05T17:34:38.826Z,48.34
2022-08-05T17:37:35.954Z,48.74
2022-08-05T17:39:56.037Z,48.27
2022-08-05T17:42:29.937Z,48.22
2022-08-05T17:44:59.842Z,48.75
2022-08-05T17:47:27.266Z,48.39
2022-08-05T17:50:03.918Z,48.47
2022-08-05T17:52:53.232Z,48.20
2022-08-05T17:55:34.665Z,49.24
2022-08-05T17:58:14.471Z,49.47
2022-08-05T18:00:47.781Z,49.82
2022-08-05T18:06:11.090Z,49.49
2022-08-05T18:08:44.123Z,49.25
2022-08-05T18:11:24.027Z,48.58
2022-08-05T18:14:00.725Z,48.22
2022-08-05T18:16:30.331Z,48.44
2022-08-05T18:18:57.380Z,47.93
2022-08-05T18:21:26.301Z,47.97
2022-08-05T18:23:54.701Z,47.04
2022-08-05T18:26:27.837Z,47.54
2022-08-05T18:28:58.472Z,47.84
2022-08-05T18:31:35.357Z,48.46
2022-08-05T18:34:06.143Z,48.42
2022-08-05T18:36:38.468Z,48.62
2022-08-05T18:39:06.669Z,49.06
2022-08-05T18:41:57.092Z,49.11
2022-08-05T18:44:34.857Z,49.44
2022-08-05T18:47:03.694Z,49.36
2022-08-05T18:49:57.920Z,49.41
2022-08-05T18:52:36.008Z,50.24
2022-08-05T18:55:05.741Z,50.53
2022-08-05T18:57:43.057Z,50.70
2022-08-05T19:00:20.400Z,50.70
2022-08-05T19:02:47.547Z,50.69
2022-08-05T19:06:05.709Z,50.67
2022-08-05T19:08:02.675Z,50.90
2022-08-05T19:10:34.443Z,50.77
2022-08-05T19:13:07.121Z,50.87
2022-08-05T19:16:00.090Z,50.88
2022-08-05T19:18:28.768Z,51.22
2022-08-05T19:20:56.064Z,51.08
2022-08-05T19:24:06.758Z,51.85
2022-08-05T19:26:09.538Z,51.22
2022-08-05T19:28:43.138Z,52.02
2022-08-05T19:31:13.239Z,52.56
2022-08-05T19:33:48.642Z,52.64
2022-08-05T19:36:27.163Z,52.42
2022-08-05T19:39:00.730Z,52.46
2022-08-05T19:42:05.415Z,52.21
2022-08-05T19:44:19.116Z,52.75
2022-08-05T19:46:46.033Z,53.30
2022-08-05T19:49:17.127Z,53.46
2022-08-05T19:52:05.041Z,53.68
2022-08-05T19:54:32.781Z,53.97
2022-08-05T19:57:08.639Z,53.81
2022-08-05T19:59:56.103Z,54.09
2022-08-05T20:02:30.231Z,54.52
2022-08-05T20:04:58.375Z,54.79
2022-08-05T20:07:45.873Z,55.01
2022-08-05T20:10:14.820Z,54.66
2022-08-05T20:12:47.616Z,54.50
2022-08-05T20:15:23.318Z,55.01
2022-08-05T20:18:33.186Z,54.72
2022-08-05T20:20:57.760Z,54.98
2022-08-05T20:23:39.818Z,55.19
2022-08-05T20:26:17.276Z,55.03
2022-08-05T20:28:46.024Z,55.46
2022-08-05T20:31:13.414Z,55.39
2022-08-05T20:33:42.981Z,55.82
2022-08-05T20:36:10.095Z,55.89
2022-08-05T20:38:38.074Z,55.64
2022-08-05T20:41:08.452Z,56.04
2022-08-05T20:43:58.666Z,55.57
2022-08-05T20:46:24.907Z,56.04
2022-08-05T20:48:52.072Z,55.82
2022-08-05T20:51:18.659Z,55.97
2022-08-05T20:53:56.580Z,55.76
2022-08-05T20:56:29.912Z,56.05
2022-08-05T20:59:00.070Z,56.10
2022-08-05T21:01:40.591Z,56.65
2022-08-05T21:04:10.488Z,56.57
2022-08-05T21:06:38.404Z,56.83
2022-08-05T21:09:14.377Z,57.21
2022-08-05T21:12:06.525Z,57.01
2022-08-05T21:14:29.211Z,56.93
2022-08-05T21:17:01.905Z,57.27
2022-08-05T21:19:29.703Z,57.29
2022-08-05T21:22:14.922Z,57.20
2022-08-05T21:24:48.867Z,57.25
2022-08-05T21:27:18.045Z,57.26
2022-08-05T21:29:48.544Z,57.22
2022-08-05T21:32:20.119Z,57.43
2022-08-05T21:35:08.496Z,57.13
2022-08-05T21:37:41.437Z,57.64
2022-08-05T21:40:13.613Z,57.22
2022-08-05T21:42:45.225Z,57.30
2022-08-05T21:45:24.450Z,57.38
2022-08-05T21:47:57.085Z,57.65
2022-08-05T21:50:27.580Z,57.70
2022-08-05T21:53:04.352Z,57.80
2022-08-05T21:56:04.169Z,57.81
2022-08-05T21:58:19.577Z,57.68
2022-08-05T22:00:50.979Z,58.01
2022-08-05T22:03:18.302Z,58.68
2022-08-05T22:06:06.215Z,58.61
2022-08-05T22:08:35.118Z,58.54
2022-08-05T22:11:01.691Z,58.71
2022-08-05T22:14:33.199Z,58.38
2022-08-05T22:16:41.080Z,59.53
2022-08-05T22:19:02.203Z,58.49
2022-08-05T22:21:29.022Z,59.16
2022-08-05T22:24:40.705Z,59.91
2022-08-05T22:27:20.709Z,59.95
2022-08-05T22:29:47.935Z,60.20
2022-08-05T22:32:17.198Z,60.57
2022-08-05T22:34:44.204Z,60.88
2022-08-05T22:37:12.463Z,60.10
2022-08-05T22:39:39.197Z,60.22
2022-08-05T22:42:12.439Z,60.27
2022-08-05T22:44:40.804Z,60.47
2022-08-05T22:47:09.434Z,61.06
2022-08-05T22:50:17.810Z,60.78
2022-08-05T22:52:32.516Z,61.41
2022-08-05T22:55:01.729Z,61.58
2022-08-05T22:57:36.296Z,61.75
2022-08-05T23:00:07.981Z,61.00
2022-08-05T23:02:39.906Z,61.70
2022-08-05T23:05:15.097Z,61.98
2022-08-05T23:07:48.557Z,61.36
2022-08-05T23:10:19.625Z,61.51
2022-08-05T23:12:47.182Z,62.00
2022-08-05T23:15:17.974Z,61.60
2022-08-05T23:18:00.627Z,62.09
2022-08-05T23:20:29.900Z,61.89
2022-08-05T23:22:56.637Z,62.57
2022-08-05T23:25:52.763Z,61.88
2022-08-05T23:28:12.281Z,62.42
2022-08-05T23:30:40.551Z,62.68
2022-08-05T23:33:16.435Z,62.67
2022-08-05T23:35:48.876Z,63.09
2022-08-05T23:38:16.261Z,63.01
2022-08-05T23:40:49.809Z,63.42
2022-08-05T23:43:25.572Z,62.67
2022-08-05T23:46:03.399Z,63.44
2022-08-05T23:48:29.938Z,63.13
2022-08-05T23:50:56.368Z,63.84
2022-08-05T23:53:28.343Z,64.06
2022-08-05T23:56:11.647Z,64.16
2022-08-05T23:58:38.430Z,63.96
